sensor_id;sensor_type;location;lat;lon;timestamp;noise_LAeq;noise_LA_min;noise_LA_max;noise_LA01;noise_LA95
52872;Laerm;40124;52.198;9.902;2023-02-15T00:04:44;42.75;38.81;46.05;;
52872;Laerm;40124;52.198;9.902;2023-02-15T00:07:13;42.30;38.52;45.27;;
52872;Laerm;40124;52.198;9.902;2023-02-15T00:15:47;57.59;39.21;81.20;;
52872;Laerm;40124;52.198;9.902;2023-02-15T00:18:31;42.34;39.58;44.87;;
52872;Laerm;40124;52.198;9.902;2023-02-15T00:20:57;41.15;38.21;43.63;;
52872;Laerm;40124;52.198;9.902;2023-02-15T00:27:31;61.93;37.52;83.11;;
52872;Laerm;40124;52.198;9.902;2023-02-15T00:29:34;56.36;36.69;77.45;;
52872;Laerm;40124;52.198;9.902;2023-02-15T00:32:05;42.59;37.88;45.99;;
52872;Laerm;40124;52.198;9.902;2023-02-15T00:35:09;47.46;40.03;64.69;;
52872;Laerm;40124;52.198;9.902;2023-02-15T00:37:43;57.50;37.32;77.15;;
52872;Laerm;40124;52.198;9.902;2023-02-15T00:43:26;41.80;37.32;62.16;;
52872;Laerm;40124;52.198;9.902;2023-02-15T00:45:52;62.96;36.69;84.43;;
52872;Laerm;40124;52.198;9.902;2023-02-15T00:48:38;42.85;38.95;48.55;;
52872;Laerm;40124;52.198;9.902;2023-02-15T01:00:06;41.89;38.37;44.43;;
52872;Laerm;40124;52.198;9.902;2023-02-15T01:05:48;40.49;37.52;45.20;;
52872;Laerm;40124;52.198;9.902;2023-02-15T01:14:21;63.70;38.67;85.58;;
52872;Laerm;40124;52.198;9.902;2023-02-15T01:16:46;55.66;38.37;74.47;;
52872;Laerm;40124;52.198;9.902;2023-02-15T01:19:14;42.40;39.81;44.19;;
52872;Laerm;40124;52.198;9.902;2023-02-15T01:21:42;42.63;39.34;45.45;;
52872;Laerm;40124;52.198;9.902;2023-02-15T01:24:11;41.55;37.88;56.53;;
52872;Laerm;40124;52.198;9.902;2023-02-15T01:26:36;57.54;39.46;77.93;;
52872;Laerm;40124;52.198;9.902;2023-02-15T01:29:13;62.02;39.34;82.57;;
52872;Laerm;40124;52.198;9.902;2023-02-15T01:31:39;42.02;38.21;50.91;;
52872;Laerm;40124;52.198;9.902;2023-02-15T01:34:04;41.56;38.05;51.40;;
52872;Laerm;40124;52.198;9.902;2023-02-15T01:39:23;44.04;41.68;46.71;;
52872;Laerm;40124;52.198;9.902;2023-02-15T01:41:48;43.30;41.22;45.30;;
52872;Laerm;40124;52.198;9.902;2023-02-15T01:56:12;42.94;39.89;44.73;;
52872;Laerm;40124;52.198;9.902;2023-02-15T01:58:40;41.96;39.21;44.65;;
52872;Laerm;40124;52.198;9.902;2023-02-15T02:01:36;43.53;40.80;45.63;;
52872;Laerm;40124;52.198;9.902;2023-02-15T02:06:27;43.41;40.89;47.12;;
52872;Laerm;40124;52.198;9.902;2023-02-15T02:08:53;56.02;38.67;76.49;;
52872;Laerm;40124;52.198;9.902;2023-02-15T02:14:32;42.42;38.81;45.91;;
52872;Laerm;40124;52.198;9.902;2023-02-15T02:38:27;56.71;40.23;76.33;;
52872;Laerm;40124;52.198;9.902;2023-02-15T02:49:58;66.99;40.53;91.00;;
52872;Laerm;40124;52.198;9.902;2023-02-15T02:55:30;56.78;40.03;77.97;;
52872;Laerm;40124;52.198;9.902;2023-02-15T03:01:06;53.43;38.05;74.39;;
52872;Laerm;40124;52.198;9.902;2023-02-15T03:03:49;68.95;42.09;87.91;;
52872;Laerm;40124;52.198;9.902;2023-02-15T03:21:30;66.68;40.23;85.64;;
52872;Laerm;40124;52.198;9.902;2023-02-15T03:30:13;43.42;40.33;48.67;;
52872;Laerm;40124;52.198;9.902;2023-02-15T03:32:40;69.92;43.99;87.42;;
52872;Laerm;40124;52.198;9.902;2023-02-15T03:35:06;42.88;39.70;53.01;;
52872;Laerm;40124;52.198;9.902;2023-02-15T03:52:50;68.18;41.53;86.05;;
52872;Laerm;40124;52.198;9.902;2023-02-15T03:55:16;64.90;41.38;81.55;;
52872;Laerm;40124;52.198;9.902;2023-02-15T03:57:49;61.31;41.89;77.57;;
52872;Laerm;40124;52.198;9.902;2023-02-15T04:03:43;63.78;42.65;80.50;;
52872;Laerm;40124;52.198;9.902;2023-02-15T04:06:10;71.48;42.41;89.32;;
52872;Laerm;40124;52.198;9.902;2023-02-15T04:08:38;59.19;41.30;79.00;;
52872;Laerm;40124;52.198;9.902;2023-02-15T04:11:22;63.93;42.41;79.66;;
52872;Laerm;40124;52.198;9.902;2023-02-15T04:13:51;60.65;42.59;77.71;;
52872;Laerm;40124;52.198;9.902;2023-02-15T04:16:24;69.19;42.82;82.74;;
52872;Laerm;40124;52.198;9.902;2023-02-15T04:18:49;66.75;42.93;81.76;;
52872;Laerm;40124;52.198;9.902;2023-02-15T04:24:47;68.61;43.49;84.48;;
52872;Laerm;40124;52.198;9.902;2023-02-15T04:27:30;68.36;44.08;81.88;;
52872;Laerm;40124;52.198;9.902;2023-02-15T04:29:56;68.02;44.65;80.92;;
52872;Laerm;40124;52.198;9.902;2023-02-15T04:35:40;69.10;43.90;86.17;;
52872;Laerm;40124;52.198;9.902;2023-02-15T04:38:28;71.18;45.66;86.71;;
52872;Laerm;40124;52.198;9.902;2023-02-15T04:40:53;70.89;45.17;81.01;;
52872;Laerm;40124;52.198;9.902;2023-02-15T04:49:00;72.58;45.54;88.76;;
52872;Laerm;40124;52.198;9.902;2023-02-15T04:51:25;62.81;43.14;78.09;;
52872;Laerm;40124;52.198;9.902;2023-02-15T04:53:51;71.78;48.18;83.21;;
52872;Laerm;40124;52.198;9.902;2023-02-15T04:56:19;68.66;43.99;86.52;;
52872;Laerm;40124;52.198;9.902;2023-02-15T05:01:54;71.68;46.23;85.50;;
52872;Laerm;40124;52.198;9.902;2023-02-15T05:04:19;67.39;43.99;80.60;;
52872;Laerm;40124;52.198;9.902;2023-02-15T05:06:45;69.93;45.86;82.79;;
52872;Laerm;40124;52.198;9.902;2023-02-15T05:09:11;68.80;46.25;84.02;;
52872;Laerm;40124;52.198;9.902;2023-02-15T05:11:36;70.44;48.29;82.35;;
52872;Laerm;40124;52.198;9.902;2023-02-15T05:14:01;70.05;47.28;80.25;;
52872;Laerm;40124;52.198;9.902;2023-02-15T05:16:27;70.07;44.87;85.13;;
52872;Laerm;40124;52.198;9.902;2023-02-15T05:21:29;71.00;48.54;82.66;;
52872;Laerm;40124;52.198;9.902;2023-02-15T05:23:54;70.21;51.70;81.12;;
52872;Laerm;40124;52.198;9.902;2023-02-15T05:29:28;70.32;46.55;86.98;;
52872;Laerm;40124;52.198;9.902;2023-02-15T05:35:01;69.83;49.94;81.64;;
52872;Laerm;40124;52.198;9.902;2023-02-15T05:37:26;74.55;48.15;88.57;;
52872;Laerm;40124;52.198;9.902;2023-02-15T05:39:52;72.70;50.30;84.56;;
52872;Laerm;40124;52.198;9.902;2023-02-15T05:48:17;74.56;58.86;89.20;;
52872;Laerm;40124;52.198;9.902;2023-02-15T05:50:43;71.04;48.94;87.78;;
52872;Laerm;40124;52.198;9.902;2023-02-15T05:53:43;73.53;52.14;89.09;;
52872;Laerm;40124;52.198;9.902;2023-02-15T05:56:12;70.86;47.46;86.60;;
52872;Laerm;40124;52.198;9.902;2023-02-15T06:01:34;71.22;48.92;82.53;;
52872;Laerm;40124;52.198;9.902;2023-02-15T06:03:59;71.16;51.06;80.72;;
52872;Laerm;40124;52.198;9.902;2023-02-15T06:06:24;71.32;51.08;83.59;;
52872;Laerm;40124;52.198;9.902;2023-02-15T06:15:23;72.96;49.87;86.69;;
52872;Laerm;40124;52.198;9.902;2023-02-15T06:17:48;74.12;56.18;87.11;;
52872;Laerm;40124;52.198;9.902;2023-02-15T06:20:13;72.51;57.45;84.90;;
52872;Laerm;40124;52.198;9.902;2023-02-15T06:25:41;73.43;56.82;88.11;;
52872;Laerm;40124;52.198;9.902;2023-02-15T06:28:06;73.07;58.45;82.54;;
52872;Laerm;40124;52.198;9.902;2023-02-15T06:30:32;74.03;56.98;88.40;;
52872;Laerm;40124;52.198;9.902;2023-02-15T06:32:57;71.64;55.13;81.65;;
52872;Laerm;40124;52.198;9.902;2023-02-15T06:35:33;73.55;58.18;86.98;;
52872;Laerm;40124;52.198;9.902;2023-02-15T06:37:58;72.86;52.22;84.20;;
52872;Laerm;40124;52.198;9.902;2023-02-15T06:40:24;72.98;55.74;84.89;;
52872;Laerm;40124;52.198;9.902;2023-02-15T06:43:13;72.15;57.98;82.61;;
52872;Laerm;40124;52.198;9.902;2023-02-15T06:45:38;73.79;58.02;86.73;;
52872;Laerm;40124;52.198;9.902;2023-02-15T06:48:12;73.35;59.51;89.24;;
52872;Laerm;40124;52.198;9.902;2023-02-15T06:51:19;72.45;53.97;83.48;;
52872;Laerm;40124;52.198;9.902;2023-02-15T06:53:50;73.13;55.05;86.84;;
52872;Laerm;40124;52.198;9.902;2023-02-15T06:59:41;73.46;51.44;84.42;;
52872;Laerm;40124;52.198;9.902;2023-02-15T07:02:08;75.17;51.01;87.76;;
52872;Laerm;40124;52.198;9.902;2023-02-15T07:04:33;73.77;55.43;86.23;;
52872;Laerm;40124;52.198;9.902;2023-02-15T07:07:19;73.57;54.67;87.15;;
52872;Laerm;40124;52.198;9.902;2023-02-15T07:10:03;73.23;49.08;86.94;;
52872;Laerm;40124;52.198;9.902;2023-02-15T07:12:29;70.60;48.95;79.48;;
52872;Laerm;40124;52.198;9.902;2023-02-15T07:21:14;70.90;53.58;86.90;;
52872;Laerm;40124;52.198;9.902;2023-02-15T07:23:47;72.18;49.19;85.48;;
52872;Laerm;40124;52.198;9.902;2023-02-15T07:29:17;73.38;50.31;87.98;;
52872;Laerm;40124;52.198;9.902;2023-02-15T07:31:43;68.10;45.01;80.34;;
52872;Laerm;40124;52.198;9.902;2023-02-15T07:34:12;68.77;49.62;80.72;;
52872;Laerm;40124;52.198;9.902;2023-02-15T07:36:37;69.05;49.23;80.14;;
52872;Laerm;40124;52.198;9.902;2023-02-15T07:39:03;75.20;49.82;93.05;;
52872;Laerm;40124;52.198;9.902;2023-02-15T07:41:28;70.20;44.39;80.78;;
52872;Laerm;40124;52.198;9.902;2023-02-15T07:43:56;72.14;47.68;88.73;;
52872;Laerm;40124;52.198;9.902;2023-02-15T07:46:37;71.84;48.54;86.37;;
52872;Laerm;40124;52.198;9.902;2023-02-15T07:49:08;70.25;45.72;82.52;;
52872;Laerm;40124;52.198;9.902;2023-02-15T07:51:39;68.79;45.42;82.98;;
52872;Laerm;40124;52.198;9.902;2023-02-15T07:54:06;70.74;46.25;87.02;;
52872;Laerm;40124;52.198;9.902;2023-02-15T07:59:58;71.67;46.97;87.75;;
52872;Laerm;40124;52.198;9.902;2023-02-15T08:02:34;70.00;43.81;88.58;;
52872;Laerm;40124;52.198;9.902;2023-02-15T08:05:02;69.89;44.31;87.90;;
52872;Laerm;40124;52.198;9.902;2023-02-15T08:07:27;72.21;45.30;87.43;;
52872;Laerm;40124;52.198;9.902;2023-02-15T08:09:52;71.11;50.03;85.50;;
52872;Laerm;40124;52.198;9.902;2023-02-15T08:12:18;70.66;46.87;85.59;;
52872;Laerm;40124;52.198;9.902;2023-02-15T08:14:54;75.16;44.51;93.07;;
52872;Laerm;40124;52.198;9.902;2023-02-15T08:17:30;67.96;43.90;83.79;;
52872;Laerm;40124;52.198;9.902;2023-02-15T08:20:15;67.54;42.76;84.41;;
52872;Laerm;40124;52.198;9.902;2023-02-15T08:25:38;71.48;46.10;86.05;;
52872;Laerm;40124;52.198;9.902;2023-02-15T08:28:03;73.11;55.73;87.26;;
52872;Laerm;40124;52.198;9.902;2023-02-15T08:30:28;70.22;45.51;88.95;;
52872;Laerm;40124;52.198;9.902;2023-02-15T08:32:54;68.42;49.88;79.90;;
52872;Laerm;40124;52.198;9.902;2023-02-15T08:35:42;69.62;46.76;82.38;;
52872;Laerm;40124;52.198;9.902;2023-02-15T08:47:41;71.81;46.73;86.65;;
52872;Laerm;40124;52.198;9.902;2023-02-15T08:50:06;66.35;45.23;77.67;;
52872;Laerm;40124;52.198;9.902;2023-02-15T08:52:34;68.28;45.04;82.68;;
52872;Laerm;40124;52.198;9.902;2023-02-15T08:55:09;70.09;49.21;83.53;;
52872;Laerm;40124;52.198;9.902;2023-02-15T08:57:37;71.57;51.82;85.49;;
52872;Laerm;40124;52.198;9.902;2023-02-15T09:00:03;70.00;47.88;84.54;;
52872;Laerm;40124;52.198;9.902;2023-02-15T09:05:43;70.66;48.16;84.22;;
52872;Laerm;40124;52.198;9.902;2023-02-15T09:08:19;68.22;43.63;84.23;;
52872;Laerm;40124;52.198;9.902;2023-02-15T09:10:45;66.83;42.71;78.93;;
52872;Laerm;40124;52.198;9.902;2023-02-15T09:25:56;69.90;43.94;84.24;;
52872;Laerm;40124;52.198;9.902;2023-02-15T09:28:25;70.73;44.69;85.80;;
52872;Laerm;40124;52.198;9.902;2023-02-15T09:30:50;70.10;49.39;85.83;;
52872;Laerm;40124;52.198;9.902;2023-02-15T09:33:15;69.25;48.57;87.99;;
52872;Laerm;40124;52.198;9.902;2023-02-15T09:39:29;71.09;47.90;85.77;;
52872;Laerm;40124;52.198;9.902;2023-02-15T09:51:14;68.92;47.04;85.69;;
52872;Laerm;40124;52.198;9.902;2023-02-15T09:54:02;79.63;44.39;105.69;;
52872;Laerm;40124;52.198;9.902;2023-02-15T10:10:54;70.54;43.90;86.43;;
52872;Laerm;40124;52.198;9.902;2023-02-15T10:13:42;72.34;45.97;88.97;;
52872;Laerm;40124;52.198;9.902;2023-02-15T10:24:58;69.22;45.89;85.59;;
52872;Laerm;40124;52.198;9.902;2023-02-15T10:27:26;69.78;47.65;85.78;;
52872;Laerm;40124;52.198;9.902;2023-02-15T10:30:11;68.42;44.80;79.12;;
52872;Laerm;40124;52.198;9.902;2023-02-15T10:35:38;72.12;46.69;88.66;;
52872;Laerm;40124;52.198;9.902;2023-02-15T10:41:13;68.34;42.71;83.32;;
52872;Laerm;40124;52.198;9.902;2023-02-15T10:52:12;71.90;46.38;88.78;;
52872;Laerm;40124;52.198;9.902;2023-02-15T11:07:20;69.57;43.49;86.69;;
52872;Laerm;40124;52.198;9.902;2023-02-15T11:12:52;66.98;40.79;81.66;;
52872;Laerm;40124;52.198;9.902;2023-02-15T11:15:30;66.35;42.29;80.51;;
52872;Laerm;40124;52.198;9.902;2023-02-15T11:17:58;68.24;46.97;80.48;;
52872;Laerm;40124;52.198;9.902;2023-02-15T11:20:28;71.63;45.04;85.88;;
52872;Laerm;40124;52.198;9.902;2023-02-15T11:22:55;72.90;50.84;88.64;;
52872;Laerm;40124;52.198;9.902;2023-02-15T11:25:33;71.87;46.07;85.34;;
52872;Laerm;40124;52.198;9.902;2023-02-15T11:39:54;69.82;45.17;81.00;;
52872;Laerm;40124;52.198;9.902;2023-02-15T11:42:30;67.44;44.47;82.21;;
52872;Laerm;40124;52.198;9.902;2023-02-15T11:44:58;68.98;43.19;79.92;;
52872;Laerm;40124;52.198;9.902;2023-02-15T11:59:22;68.43;45.39;80.18;;
52872;Laerm;40124;52.198;9.902;2023-02-15T12:01:49;70.23;47.46;84.52;;
52872;Laerm;40124;52.198;9.902;2023-02-15T12:04:30;70.54;45.69;84.15;;
52872;Laerm;40124;52.198;9.902;2023-02-15T12:07:31;71.06;48.07;87.70;;
52872;Laerm;40124;52.198;9.902;2023-02-15T12:09:52;71.62;49.66;86.40;;
52872;Laerm;40124;52.198;9.902;2023-02-15T12:12:28;69.08;44.11;78.81;;
52872;Laerm;40124;52.198;9.902;2023-02-15T12:14:55;69.46;48.40;81.17;;
52872;Laerm;40124;52.198;9.902;2023-02-15T12:17:25;70.83;45.66;83.33;;
52872;Laerm;40124;52.198;9.902;2023-02-15T12:22:35;69.99;46.23;81.14;;
52872;Laerm;40124;52.198;9.902;2023-02-15T12:25:03;74.99;54.23;89.75;;
52872;Laerm;40124;52.198;9.902;2023-02-15T12:27:42;68.71;42.71;79.73;;
52872;Laerm;40124;52.198;9.902;2023-02-15T12:42:15;73.51;49.51;87.81;;
52872;Laerm;40124;52.198;9.902;2023-02-15T12:45:03;72.23;45.91;87.56;;
52872;Laerm;40124;52.198;9.902;2023-02-15T12:56:46;71.13;44.11;80.54;;
52872;Laerm;40124;52.198;9.902;2023-02-15T12:59:03;71.38;42.22;86.07;;
52872;Laerm;40124;52.198;9.902;2023-02-15T13:01:29;71.64;45.36;84.62;;
52872;Laerm;40124;52.198;9.902;2023-02-15T13:06:38;72.30;44.65;86.24;;
52872;Laerm;40124;52.198;9.902;2023-02-15T13:09:27;72.62;48.95;85.33;;
52872;Laerm;40124;52.198;9.902;2023-02-15T13:12:19;71.44;45.80;85.07;;
52872;Laerm;40124;52.198;9.902;2023-02-15T13:14:46;72.52;48.02;86.79;;
52872;Laerm;40124;52.198;9.902;2023-02-15T13:17:24;69.35;44.80;87.45;;
52872;Laerm;40124;52.198;9.902;2023-02-15T13:53:44;76.23;45.07;99.75;;
52872;Laerm;40124;52.198;9.902;2023-02-15T14:10:54;71.72;49.38;85.00;;
52872;Laerm;40124;52.198;9.902;2023-02-15T14:16:26;73.70;52.75;90.03;;
52872;Laerm;40124;52.198;9.902;2023-02-15T14:30:52;71.64;47.55;81.92;;
52872;Laerm;40124;52.198;9.902;2023-02-15T14:33:25;71.29;48.76;81.90;;
52872;Laerm;40124;52.198;9.902;2023-02-15T14:35:54;70.40;44.47;80.66;;
52872;Laerm;40124;52.198;9.902;2023-02-15T14:38:25;73.75;40.53;88.94;;
52872;Laerm;40124;52.198;9.902;2023-02-15T14:44:09;72.87;52.60;86.46;;
52872;Laerm;40124;52.198;9.902;2023-02-15T14:47:22;71.94;45.48;89.93;;
52872;Laerm;40124;52.198;9.902;2023-02-15T14:52:26;72.28;45.77;85.45;;
52872;Laerm;40124;52.198;9.902;2023-02-15T14:54:55;71.06;43.97;80.69;;
52872;Laerm;40124;52.198;9.902;2023-02-15T14:57:21;72.08;44.19;83.16;;
52872;Laerm;40124;52.198;9.902;2023-02-15T15:08:22;72.15;49.03;81.71;;
52872;Laerm;40124;52.198;9.902;2023-02-15T15:10:50;71.66;49.15;88.97;;
52872;Laerm;40124;52.198;9.902;2023-02-15T15:43:41;71.73;52.27;80.90;;
52872;Laerm;40124;52.198;9.902;2023-02-15T15:49:00;72.45;51.01;82.28;;
52872;Laerm;40124;52.198;9.902;2023-02-15T15:51:32;71.84;50.20;81.31;;
52872;Laerm;40124;52.198;9.902;2023-02-15T15:53:58;71.31;49.90;82.19;;
52872;Laerm;40124;52.198;9.902;2023-02-15T15:56:27;71.64;49.78;82.71;;
52872;Laerm;40124;52.198;9.902;2023-02-15T15:58:58;71.89;51.35;81.49;;
52872;Laerm;40124;52.198;9.902;2023-02-15T16:01:35;71.51;49.77;81.12;;
52872;Laerm;40124;52.198;9.902;2023-02-15T16:07:25;72.50;46.43;86.22;;
52872;Laerm;40124;52.198;9.902;2023-02-15T16:12:48;70.62;44.07;80.29;;
52872;Laerm;40124;52.198;9.902;2023-02-15T16:31:10;69.79;47.40;79.06;;
52872;Laerm;40124;52.198;9.902;2023-02-15T16:36:46;73.43;48.45;91.02;;
52872;Laerm;40124;52.198;9.902;2023-02-15T16:51:23;69.69;47.26;83.16;;
52872;Laerm;40124;52.198;9.902;2023-02-15T16:57:01;70.81;46.64;82.07;;
52872;Laerm;40124;52.198;9.902;2023-02-15T17:02:33;71.34;41.96;85.36;;
52872;Laerm;40124;52.198;9.902;2023-02-15T17:10:31;71.25;51.62;81.36;;
52872;Laerm;40124;52.198;9.902;2023-02-15T17:13:01;71.26;49.95;80.70;;
52872;Laerm;40124;52.198;9.902;2023-02-15T17:27:29;70.66;48.92;81.01;;
52872;Laerm;40124;52.198;9.902;2023-02-15T17:29:58;71.18;45.20;80.04;;
52872;Laerm;40124;52.198;9.902;2023-02-15T17:32:26;67.96;44.19;80.62;;
52872;Laerm;40124;52.198;9.902;2023-02-15T17:40:24;70.59;45.30;83.27;;
52872;Laerm;40124;52.198;9.902;2023-02-15T17:42:49;70.08;47.61;81.80;;
52872;Laerm;40124;52.198;9.902;2023-02-15T17:45:15;69.67;45.48;82.06;;
52872;Laerm;40124;52.198;9.902;2023-02-15T17:47:49;66.40;42.76;80.15;;
52872;Laerm;40124;52.198;9.902;2023-02-15T17:50:17;70.74;50.29;80.98;;
52872;Laerm;40124;52.198;9.902;2023-02-15T17:52:43;67.79;42.76;81.39;;
52872;Laerm;40124;52.198;9.902;2023-02-15T17:55:12;68.93;44.15;79.92;;
52872;Laerm;40124;52.198;9.902;2023-02-15T17:57:56;68.07;44.76;79.93;;
52872;Laerm;40124;52.198;9.902;2023-02-15T18:00:21;68.83;46.55;80.49;;
52872;Laerm;40124;52.198;9.902;2023-02-15T18:03:11;70.02;45.11;81.17;;
52872;Laerm;40124;52.198;9.902;2023-02-15T18:05:55;68.37;40.71;81.07;;
52872;Laerm;40124;52.198;9.902;2023-02-15T18:08:40;67.92;40.98;80.37;;
52872;Laerm;40124;52.198;9.902;2023-02-15T18:11:24;67.51;43.86;82.26;;
52872;Laerm;40124;52.198;9.902;2023-02-15T18:19:55;68.67;45.83;79.78;;
52872;Laerm;40124;52.198;9.902;2023-02-15T18:22:31;67.66;45.97;81.10;;
52872;Laerm;40124;52.198;9.902;2023-02-15T18:24:56;68.35;44.07;80.92;;
52872;Laerm;40124;52.198;9.902;2023-02-15T18:27:22;67.17;42.76;81.88;;
52872;Laerm;40124;52.198;9.902;2023-02-15T18:29:47;69.44;45.60;84.18;;
52872;Laerm;40124;52.198;9.902;2023-02-15T18:41:20;68.12;42.16;80.12;;
52872;Laerm;40124;52.198;9.902;2023-02-15T18:43:57;67.55;43.34;80.32;;
52872;Laerm;40124;52.198;9.902;2023-02-15T18:46:51;66.61;43.34;80.00;;
52872;Laerm;40124;52.198;9.902;2023-02-15T18:49:16;68.40;42.29;82.24;;
52872;Laerm;40124;52.198;9.902;2023-02-15T18:51:41;67.23;40.71;80.45;;
52872;Laerm;40124;52.198;9.902;2023-02-15T18:54:15;66.90;45.30;89.88;;
52872;Laerm;40124;52.198;9.902;2023-02-15T18:56:46;69.21;45.94;82.87;;
52872;Laerm;40124;52.198;9.902;2023-02-15T18:59:14;68.13;45.23;82.53;;
52872;Laerm;40124;52.198;9.902;2023-02-15T19:01:40;66.82;45.63;79.89;;
52872;Laerm;40124;52.198;9.902;2023-02-15T19:16:13;69.67;45.86;89.53;;
52872;Laerm;40124;52.198;9.902;2023-02-15T19:21:34;68.44;44.39;81.07;;
52872;Laerm;40124;52.198;9.902;2023-02-15T19:29:48;64.81;40.23;79.88;;
52872;Laerm;40124;52.198;9.902;2023-02-15T19:32:24;64.60;41.46;79.55;;
52872;Laerm;40124;52.198;9.902;2023-02-15T19:34:49;66.88;44.19;79.81;;
52872;Laerm;40124;52.198;9.902;2023-02-15T19:40:26;65.70;42.59;81.12;;
52872;Laerm;40124;52.198;9.902;2023-02-15T19:52:38;65.31;43.49;79.92;;
52872;Laerm;40124;52.198;9.902;2023-02-15T19:55:39;64.99;42.29;79.42;;
52872;Laerm;40124;52.198;9.902;2023-02-15T20:00:50;67.07;41.06;81.54;;
52872;Laerm;40124;52.198;9.902;2023-02-15T20:03:15;62.02;39.92;78.48;;
52872;Laerm;40124;52.198;9.902;2023-02-15T20:06:02;61.61;38.95;79.42;;
52872;Laerm;40124;52.198;9.902;2023-02-15T20:08:30;64.66;40.23;79.09;;
52872;Laerm;40124;52.198;9.902;2023-02-15T20:10:56;59.63;40.62;77.13;;
52872;Laerm;40124;52.198;9.902;2023-02-15T20:13:25;69.03;42.53;82.48;;
52872;Laerm;40124;52.198;9.902;2023-02-15T20:15:52;64.19;41.22;80.16;;
52872;Laerm;40124;52.198;9.902;2023-02-15T20:18:39;66.98;41.03;83.62;;
52872;Laerm;40124;52.198;9.902;2023-02-15T20:21:03;65.07;41.06;80.80;;
52872;Laerm;40124;52.198;9.902;2023-02-15T20:23:32;65.56;40.71;83.54;;
52872;Laerm;40124;52.198;9.902;2023-02-15T20:25:59;68.18;40.71;81.80;;
52872;Laerm;40124;52.198;9.902;2023-02-15T20:28:26;65.00;40.62;79.56;;
52872;Laerm;40124;52.198;9.902;2023-02-15T20:30:59;64.16;39.08;80.91;;
52872;Laerm;40124;52.198;9.902;2023-02-15T20:33:24;66.26;40.43;80.48;;
52872;Laerm;40124;52.198;9.902;2023-02-15T20:35:50;61.05;40.62;77.69;;
52872;Laerm;40124;52.198;9.902;2023-02-15T20:38:19;42.99;39.70;52.80;;
52872;Laerm;40124;52.198;9.902;2023-02-15T20:41:11;65.56;40.33;83.03;;
52872;Laerm;40124;52.198;9.902;2023-02-15T20:44:42;63.37;40.43;79.87;;
52872;Laerm;40124;52.198;9.902;2023-02-15T20:47:00;64.72;40.71;83.47;;
52872;Laerm;40124;52.198;9.902;2023-02-15T20:49:26;68.05;41.96;85.55;;
52872;Laerm;40124;52.198;9.902;2023-02-15T20:51:53;63.91;39.78;80.84;;
52872;Laerm;40124;52.198;9.902;2023-02-15T20:54:22;64.31;38.95;80.24;;
52872;Laerm;40124;52.198;9.902;2023-02-15T20:56:48;68.38;45.27;80.39;;
52872;Laerm;40124;52.198;9.902;2023-02-15T20:59:18;61.39;39.21;80.28;;
52872;Laerm;40124;52.198;9.902;2023-02-15T21:01:44;64.51;40.98;78.62;;
52872;Laerm;40124;52.198;9.902;2023-02-15T21:04:18;63.16;40.71;78.46;;
52872;Laerm;40124;52.198;9.902;2023-02-15T21:06:44;62.86;40.23;80.02;;
52872;Laerm;40124;52.198;9.902;2023-02-15T21:09:13;57.40;40.03;77.20;;
52872;Laerm;40124;52.198;9.902;2023-02-15T21:14:27;64.28;39.08;80.59;;
52872;Laerm;40124;52.198;9.902;2023-02-15T21:16:53;66.66;41.82;79.81;;
52872;Laerm;40124;52.198;9.902;2023-02-15T21:19:28;63.69;40.62;79.78;;
52872;Laerm;40124;52.198;9.902;2023-02-15T21:21:55;64.09;40.80;78.78;;
52872;Laerm;40124;52.198;9.902;2023-02-15T21:24:27;61.71;39.46;80.14;;
52872;Laerm;40124;52.198;9.902;2023-02-15T21:26:53;60.79;39.21;76.96;;
52872;Laerm;40124;52.198;9.902;2023-02-15T21:29:28;64.55;40.23;83.72;;
52872;Laerm;40124;52.198;9.902;2023-02-15T21:31:53;62.94;40.23;80.86;;
52872;Laerm;40124;52.198;9.902;2023-02-15T21:34:29;63.17;40.43;81.37;;
52872;Laerm;40124;52.198;9.902;2023-02-15T21:39:38;63.12;40.53;80.15;;
52872;Laerm;40124;52.198;9.902;2023-02-15T21:42:04;65.27;39.58;82.86;;
52872;Laerm;40124;52.198;9.902;2023-02-15T21:53:53;64.97;39.46;80.68;;
52872;Laerm;40124;52.198;9.902;2023-02-15T21:56:21;64.50;38.67;84.04;;
52872;Laerm;40124;52.198;9.902;2023-02-15T21:58:51;57.59;38.52;78.40;;
52872;Laerm;40124;52.198;9.902;2023-02-15T22:03:42;58.40;37.70;76.60;;
52872;Laerm;40124;52.198;9.902;2023-02-15T22:06:08;62.15;41.61;78.75;;
52872;Laerm;40124;52.198;9.902;2023-02-15T22:08:36;62.35;40.23;77.96;;
52872;Laerm;40124;52.198;9.902;2023-02-15T22:11:01;45.91;39.58;56.06;;
52872;Laerm;40124;52.198;9.902;2023-02-15T22:19:49;63.30;39.92;83.54;;
52872;Laerm;40124;52.198;9.902;2023-02-15T22:22:35;60.12;37.52;77.42;;
52872;Laerm;40124;52.198;9.902;2023-02-15T22:31:14;42.56;39.08;47.44;;
52872;Laerm;40124;52.198;9.902;2023-02-15T22:33:41;63.10;38.95;79.23;;
52872;Laerm;40124;52.198;9.902;2023-02-15T22:45:25;67.95;39.34;89.82;;
52872;Laerm;40124;52.198;9.902;2023-02-15T22:51:19;45.00;38.37;55.94;;
52872;Laerm;40124;52.198;9.902;2023-02-15T23:03:21;53.63;37.70;74.19;;
52872;Laerm;40124;52.198;9.902;2023-02-15T23:05:51;60.58;37.52;79.15;;
52872;Laerm;40124;52.198;9.902;2023-02-15T23:08:41;41.96;37.70;45.69;;
52872;Laerm;40124;52.198;9.902;2023-02-15T23:11:08;58.80;39.58;80.49;;
52872;Laerm;40124;52.198;9.902;2023-02-15T23:19:59;42.81;38.52;48.96;;
52872;Laerm;40124;52.198;9.902;2023-02-15T23:25:31;41.26;36.91;50.55;;
52872;Laerm;40124;52.198;9.902;2023-02-15T23:40:28;42.70;38.67;45.54;;
52872;Laerm;40124;52.198;9.902;2023-02-15T23:49:01;59.80;38.37;79.56;;
52872;Laerm;40124;52.198;9.902;2023-02-15T23:57:42;57.84;40.89;78.69;;
